Home > Products > Valid Products > TAF

000
FTUS45 KABQ 250500
TAFTCC
TAF
KTCC 250525Z 2506/2606 31007KT P6SM BKN200
     FM251800 25010G18KT P6SM SCT250
     FM260100 26007KT P6SM SKC=



000
FTUS45 KABQ 250500
TAFROW
TAF
KROW 250525Z 2506/2606 VRB04KT P6SM SCT250
     FM252000 16007KT P6SM SCT250
     FM260200 24005KT P6SM SKC=



000
FTUS45 KABQ 250500
TAFFMN
TAF
KFMN 250525Z 2506/2606 VRB04KT P6SM SKC
     FM250800 09006KT P6SM SKC
     FM251700 13006KT P6SM SKC
     FM252100 26008KT P6SM SKC
     FM260300 VRB04KT P6SM SKC=



000
FTUS45 KABQ 250500
TAFLVS
TAF
KLVS 250525Z 2506/2606 36010KT P6SM BKN200
     FM251800 20010G18KT P6SM FEW250
     FM252200 18008KT P6SM SKC
     FM260300 VRB04KT P6SM SKC=



000
FTUS45 KABQ 250500
TAFABQ
TAF
KABQ 250525Z 2506/2606 01006KT P6SM SCT250
     FM251900 VRB04KT P6SM SKC
     FM260300 02005KT P6SM SKC=



000
FTUS45 KABQ 250500
TAFSAF
TAF
KSAF 250525Z 2506/2606 36013KT P6SM SCT250
     FM251200 01014G22KT P6SM SKC
     FM252100 29008KT P6SM SKC
     FM260200 36006KT P6SM SKC=



000
FTUS45 KABQ 250500
TAFGUP
TAF
KGUP 250525Z 2506/2606 VRB03KT P6SM SKC
     FM252100 34006KT P6SM SKC
     FM260200 VRB03KT P6SM SKC=



000
FTUS45 KABQ 250200 AAA
TAFGUP
TAF AMD
KGUP 250233Z 2503/2524 04010KT P6SM SCT250
     FM250400 VRB03KT P6SM FEW250
     FM252100 34006KT P6SM SKC=



000
FTUS45 KABQ 250200 AAA
TAFABQ
TAF AMD
KABQ 250233Z 2503/2524 35011KT P6SM BKN200
     FM250600 36006KT P6SM SCT250
     FM251800 VRB04KT P6SM SKC=



000
FTUS45 KABQ 242300
TAFFMN
TAF
KFMN 242335Z 2500/2524 27008KT P6SM BKN200
     FM250300 VRB04KT P6SM SCT200
     FM250800 08005KT P6SM FEW200
     FM251600 12006KT P6SM FEW250
     FM252100 26008KT P6SM SKC=



000
FTUS45 KABQ 242300
TAFLVS
TAF
KLVS 242335Z 2500/2524 33010KT P6SM BKN200
     FM250300 32006KT P6SM SCT200
     FM251600 20009G16KT P6SM FEW250
     FM252200 16008KT P6SM SKC=



000
FTUS45 KABQ 242300
TAFGUP
TAF
KGUP 242335Z 2500/2524 33005KT P6SM SCT250
     FM250200 VRB03KT P6SM FEW250
     FM252100 34006KT P6SM SKC=



000
FTUS45 KABQ 242300
TAFSAF
TAF
KSAF 242335Z 2500/2524 28006KT P6SM BKN200
     FM250300 36008KT P6SM SCT250
     FM251200 01013G20KT P6SM SKC
     FM252100 29008KT P6SM SKC=



000
FTUS45 KABQ 242300
TAFABQ
TAF
KABQ 242335Z 2500/2524 30005KT P6SM SCT200
     FM250600 36007KT P6SM FEW250
     FM251800 VRB04KT P6SM SKC=



000
FTUS45 KABQ 242300
TAFTCC
TAF
KTCC 242335Z 2500/2524 23009KT P6SM BKN250
     FM250300 30007KT P6SM SCT250
     FM251700 24009G16KT P6SM FEW250
     FM252100 26013G20KT P6SM SKC=



000
FTUS45 KABQ 242300
TAFROW
TAF
KROW 242335Z 2500/2524 18007KT P6SM SCT250
     FM250400 VRB04KT P6SM SCT250
     FM252000 16007KT P6SM SCT250=



000
FTUS45 KABQ 241700
TAFROW
TAF
KROW 241738Z 2418/2518 VRB05KT P6SM BKN250
     FM242000 19008KT P6SM SCT250
     FM250400 VRB05KT P6SM SCT250=



000
FTUS45 KABQ 241700
TAFGUP
TAF
KGUP 241738Z 2418/2518 VRB05KT P6SM FEW200
     FM241930 32007KT P6SM SCT250
     FM250100 VRB03KT P6SM FEW250=



000
FTUS45 KABQ 241700
TAFABQ
TAF
KABQ 241738Z 2418/2518 VRB05KT P6SM FEW200
     FM241930 32006KT P6SM SCT200
     FM250600 36007KT P6SM FEW250
     FM251600 VRB05KT P6SM SKC=



000
FTUS45 KABQ 241700
TAFTCC
TAF
KTCC 241738Z 2418/2518 24009KT P6SM FEW250
     FM241900 24015G24KT P6SM FEW250
     FM250200 30007KT P6SM SCT250
     FM251600 25009KT P6SM FEW250=



000
FTUS45 KABQ 241700
TAFLVS
TAF
KLVS 241738Z 2418/2518 31007KT P6SM FEW250
     FM241930 27011G18KT P6SM SCT200
     FM250230 32007KT P6SM SCT200
     FM251530 23009KT P6SM FEW250=



000
FTUS45 KABQ 241700
TAFFMN
TAF
KFMN 241738Z 2418/2518 VRB06KT P6SM BKN200
     FM242030 28009KT P6SM FEW150 BKN200
     FM250300 VRB05KT P6SM SCT200
     FM250800 08005KT P6SM FEW200
     FM251600 12006KT P6SM FEW250=



000
FTUS45 KABQ 241700
TAFSAF
TAF
KSAF 241738Z 2418/2518 01010G16KT P6SM SCT200
     FM242000 26007KT P6SM SCT200
     FM250400 36009KT P6SM FEW250
     FM251200 36013G20KT P6SM SKC=



000
FTUS45 KABQ 241100
TAFGUP
TAF
KGUP 241120Z 2412/2512 VRB03KT P6SM FEW200
     FM241800 33007KT P6SM FEW250
     FM250100 VRB03KT P6SM FEW250=



000
FTUS45 KABQ 241100
TAFLVS
TAF
KLVS 241120Z 2412/2512 VRB06KT P6SM FEW250
     FM241900 25011G18KT P6SM FEW250
     FM250100 28008KT P6SM FEW250=



000
FTUS45 KABQ 241100
TAFROW
TAF
KROW 241120Z 2412/2512 31004KT P6SM SCT250
     FM241900 16008KT P6SM BKN250
     FM250400 VRB05KT P6SM BKN250=



000
FTUS45 KABQ 241100
TAFSAF
TAF
KSAF 241120Z 2412/2512 01014KT P6SM FEW250
     FM242000 26007KT P6SM FEW250
     FM250400 36006KT P6SM FEW250
     FM251100 36013KT P6SM SKC=



000
FTUS45 KABQ 241100
TAFFMN
TAF
KFMN 241120Z 2412/2512 08005KT P6SM SCT200
     FM242100 28009KT P6SM SCT200
     FM250300 VRB05KT P6SM SCT200
     FM250800 08005KT P6SM FEW200=



000
FTUS45 KABQ 241100
TAFABQ
TAF
KABQ 241120Z 2412/2512 01005KT P6SM FEW250
     FM241700 VRB05KT P6SM FEW250
     FM250700 36007KT P6SM FEW250=



000
FTUS45 KABQ 241100
TAFTCC
TAF
KTCC 241120Z 2412/2512 24009KT P6SM FEW250
     FM241700 24014G24KT P6SM FEW250
     FM250100 29007KT P6SM FEW250=



000
FTUS45 KABQ 240500
TAFABQ
TAF
KABQ 240529Z 2406/2506 02005KT P6SM BKN200
     FM241900 31005KT P6SM FEW250
     FM250200 36007KT P6SM FEW250=



000
FTUS45 KABQ 240500
TAFTCC
TAF
KTCC 240529Z 2406/2506 30009KT P6SM SCT250
     FM241700 24014G24KT P6SM SCT250
     FM250000 25009KT P6SM FEW250
     FM250500 30007KT P6SM SKC=



000
FTUS45 KABQ 240500
TAFLVS
TAF
KLVS 240529Z 2406/2506 32006KT P6SM SCT250
     FM240900 24006KT P6SM BKN200
     FM241900 21011G17KT P6SM SKC
     FM250100 36008KT P6SM FEW250=



000
FTUS45 KABQ 240500
TAFFMN
TAF
KFMN 240529Z 2406/2506 08005KT P6SM SCT200
     FM242100 28009KT P6SM SKC
     FM250100 26006KT P6SM FEW250
     FM250500 08005KT P6SM SCT250=



000
FTUS45 KABQ 240500
TAFSAF
TAF
KSAF 240529Z 2406/2506 36007KT P6SM BKN200
     FM241200 01014KT P6SM SCT200
     FM242000 32007KT P6SM FEW250
     FM250200 36006KT P6SM FEW250=



000
FTUS45 KABQ 240500
TAFROW
TAF
KROW 240529Z 2406/2506 31004KT P6SM SCT250
     FM242000 20006KT P6SM FEW250
     FM250400 30005KT P6SM SCT250=



000
FTUS45 KABQ 240500
TAFGUP
TAF
KGUP 240529Z 2406/2506 VRB03KT P6SM BKN200
     FM241800 01005KT P6SM SKC
     FM250100 VRB03KT P6SM FEW250=



000
FTUS45 KABQ 232300
TAFGUP
TAF
KGUP 232333Z 2400/2424 VRB03KT P6SM BKN200
     FM242000 02005KT P6SM SKC=



000
FTUS45 KABQ 232300
TAFLVS
TAF
KLVS 232333Z 2400/2424 15005KT P6SM SCT250
     FM240600 24006KT P6SM BKN200
     FM241900 21011G17KT P6SM FEW250=



000
FTUS45 KABQ 232300
TAFTCC
TAF
KTCC 232333Z 2400/2424 27007KT P6SM SKC
     FM240600 30007KT P6SM BKN250
     FM241900 25010KT P6SM FEW250=



000
FTUS45 KABQ 232300
TAFABQ
TAF
KABQ 232333Z 2400/2424 VRB04KT P6SM SCT250
     FM240600 02005KT P6SM BKN200
     FM241900 VRB04KT P6SM FEW250=



000
FTUS45 KABQ 232300
TAFFMN
TAF
KFMN 232333Z 2400/2424 25007KT P6SM SCT200
     FM240300 08005KT P6SM BKN200
     FM242100 27010KT P6SM SKC=



000
FTUS45 KABQ 232300
TAFSAF
TAF
KSAF 232333Z 2400/2424 30007KT P6SM FEW250
     FM240400 36007KT P6SM BKN200
     FM241200 01014KT P6SM SCT200
     FM242000 32007KT P6SM FEW250=



000
FTUS45 KABQ 232300
TAFROW
TAF
KROW 232333Z 2400/2424 VRB05KT P6SM SCT250=



000
FTUS45 KABQ 231700
TAFTCC
TAF
KTCC 231721Z 2318/2418 27007KT P6SM SKC
     FM240200 32007KT P6SM BKN250
     FM241600 27006KT P6SM BKN200=



000
FTUS45 KABQ 231700
TAFSAF
TAF
KSAF 231721Z 2318/2418 36015KT P6SM SKC
     FM232000 31007KT P6SM SCT200
     FM240100 VRB04KT P6SM BKN200
     FM240900 36013KT P6SM BKN200=



000
FTUS45 KABQ 231700
TAFLVS
TAF
KLVS 231721Z 2318/2418 02006KT P6SM SKC
     FM232000 19008KT P6SM SCT200
     FM240200 32006KT P6SM BKN200
     FM241600 22008KT P6SM SCT200=



000
FTUS45 KABQ 231700
TAFROW
TAF
KROW 231721Z 2318/2418 VRB05KT P6SM FEW250=



000
FTUS45 KABQ 231700
TAFFMN
TAF
KFMN 231721Z 2318/2418 12005KT P6SM FEW250
     FM232000 27009KT P6SM BKN200
     FM240600 08005KT P6SM SCT150=



000
FTUS45 KABQ 231700
TAFABQ
TAF
KABQ 231721Z 2318/2418 VRB03KT P6SM SKC
     FM232000 31006KT P6SM SCT200
     FM240300 02004KT P6SM BKN200=



000
FTUS45 KABQ 231700
TAFGUP
TAF
KGUP 231721Z 2318/2418 VRB03KT P6SM SKC
     FM232100 31006KT P6SM BKN200
     FM240200 VRB03KT P6SM SCT150=



000
FTUS45 KABQ 231100
TAFROW
TAF
KROW 231126Z 2312/2412 VRB03KT P6SM SKC
     FM231700 29006KT P6SM SKC
     FM232100 33007KT P6SM SKC
     FM240400 VRB05KT P6SM FEW250=



000
FTUS45 KABQ 231100
TAFGUP
TAF
KGUP 231126Z 2312/2412 VRB03KT P6SM SKC
     FM232100 31006KT P6SM BKN200
     FM240200 VRB03KT P6SM BKN150=



000
FTUS45 KABQ 231100
TAFFMN
TAF
KFMN 231126Z 2312/2412 08005KT P6SM FEW250
     FM232000 27009KT P6SM BKN200
     FM240600 08005KT P6SM SCT150=



000
FTUS45 KABQ 231100
TAFSAF
TAF
KSAF 231126Z 2312/2412 36015KT P6SM SKC
     FM232000 31007KT P6SM SCT200
     FM240100 VRB04KT P6SM BKN200
     FM240900 36009KT P6SM BKN200=



000
FTUS45 KABQ 231100
TAFTCC
TAF
KTCC 231126Z 2312/2412 27007KT P6SM SKC
     FM232100 27008KT P6SM FEW250
     FM240200 30006KT P6SM FEW090 SCT250=



000
FTUS45 KABQ 231100
TAFABQ
TAF
KABQ 231126Z 2312/2412 VRB03KT P6SM SKC
     FM232000 31006KT P6SM SCT200
     FM240300 VRB03KT P6SM BKN200=



000
FTUS45 KABQ 231100
TAFLVS
TAF
KLVS 231126Z 2312/2412 33009KT P6SM SKC
     FM231500 25006KT P6SM FEW250
     FM232000 22010KT P6SM SCT200
     FM240300 33006KT P6SM BKN200=



000
FTUS45 KABQ 230900 AAA
TAFROW
TAF AMD
KROW 230907Z 2309/2406 VRB03KT P6SM SKC
      TEMPO 2309/2313 3SM BR BKN004
     FM231600 29006KT P6SM SCT012
     FM232100 31007KT P6SM SCT200=



000
FTUS45 KABQ 230900 AAA
TAFTCC
TAF AMD
KTCC 230906Z 2309/2406 26006KT P6SM SKC
      TEMPO 2310/2314 3SM BR BKN004
     FM231600 30008KT P6SM SCT005
     FM232100 27008KT P6SM SCT200=



000
FTUS45 KABQ 230900 AAA
TAFLVS
TAF AMD
KLVS 230904Z 2309/2406 34006KT P6SM SKC
     FM231500 25006KT P6SM SCT200
     FM232000 22010KT P6SM BKN200=



000
FTUS45 KABQ 230500
TAFSAF
TAF
KSAF 230529Z 2306/2406 35006KT P6SM FEW035
     FM231200 36015KT P6SM SCT200
     FM232000 31007KT P6SM BKN200=



000
FTUS45 KABQ 230500
TAFTCC
TAF
KTCC 230529Z 2306/2406 23006KT 5SM BR SCT005
      TEMPO 2306/2310 1/2SM FZFG OVC002
     FM231000 28006KT 4SM BR SCT005
      TEMPO 2310/2314 1/2SM FZFG OVC002
     FM231600 30008KT P6SM SCT005
     FM232100 27008KT P6SM SCT200=



000
FTUS45 KABQ 230500
TAFLVS
TAF
KLVS 230529Z 2306/2406 22013KT 6SM BR OVC003
      TEMPO 2306/2310 1/2SM FZFG
     FM231000 32006KT P6SM SCT003
     FM231500 25006KT P6SM SCT200
     FM232000 22010KT P6SM BKN200=



000
FTUS45 KABQ 230500
TAFFMN
TAF
KFMN 230529Z 2306/2406 27006KT P6SM SKC
     FM231100 08006KT P6SM SCT250
     FM231600 13006KT P6SM SCT250
     FM232000 27010KT P6SM SCT080 BKN150=



000
FTUS45 KABQ 230500
TAFABQ
TAF
KABQ 230529Z 2306/2406 15006KT P6SM SCT040
     FM231100 35006KT P6SM FEW035
     FM232000 31007KT P6SM BKN200=



000
FTUS45 KABQ 230500
TAFGUP
TAF
KGUP 230529Z 2306/2406 VRB06KT P6SM SKC
     FM232100 31006KT P6SM BKN200=



000
FTUS45 KABQ 230500
TAFROW
TAF
KROW 230529Z 2306/2406 33008KT P6SM SCT025 BKN040
     FM230800 VRB06KT 6SM BR SCT005
      TEMPO 2308/2312 1SM BR OVC004
     FM231600 29006KT P6SM SCT012
     FM232100 31007KT P6SM SCT200=



000
FTUS45 KABQ 230300 AAA
TAFROW
TAF AMD
KROW 230303Z 2303/2324 33008KT P6SM SCT025 OVC040
     FM230500 28006KT P6SM BKN040
     FM230800 VRB06KT 6SM BR SCT005
      TEMPO 2308/2312 1SM BR OVC004
     FM231600 29006KT P6SM SCT012
     FM232100 31007KT P6SM SCT200=



000
FTUS45 KABQ 230300 AAA
TAFTCC
TAF AMD
KTCC 230300Z 2303/2324 23006KT 6SM BR FEW005 SCT035
      TEMPO 2303/2307 1SM BR BKN005
     FM230700 28006KT 5SM BR SCT005
      TEMPO 2307/2311 1/2SM FZFG OVC005
     FM231600 30008KT P6SM SCT200
     FM232100 27008KT P6SM SCT200=



000
FTUS45 KABQ 230200 AAB
TAFLVS
TAF AMD
KLVS 230257Z 2303/2324 22013KT P6SM OVC003
     FM230900 35006KT P6SM SCT003 SCT200
     FM231500 25006KT P6SM SCT200
     FM232000 22010KT P6SM BKN200=



000
FTUS45 KABQ 230100 AAA
TAFLVS
TAF AMD
KLVS 230102Z 2301/2324 17007KT P6SM BKN008
     FM230300 22006KT P6SM SCT006
     FM230900 35006KT P6SM FEW200
     FM232000 16010KT P6SM BKN200=



000
FTUS45 KABQ 222300
TAFLVS
TAF
KLVS 222340Z 2300/2324 17007KT P6SM FEW035
     FM230300 22006KT P6SM SKC
     FM230900 35006KT P6SM FEW200
     FM232000 16010KT P6SM BKN200=



000
FTUS45 KABQ 222300
TAFSAF
TAF
KSAF 222340Z 2300/2324 35005KT P6SM FEW035
     FM231200 36015KT P6SM SCT200
     FM232000 31007KT P6SM BKN200=



000
FTUS45 KABQ 222300
TAFTCC
TAF
KTCC 222340Z 2300/2324 07007KT P6SM SCT035 BKN070
     FM230200 26006KT P6SM FEW035 SCT070
     FM231000 28006KT P6SM SCT007
     FM231600 30009KT P6SM SCT200=



000
FTUS45 KABQ 222300
TAFABQ
TAF
KABQ 222340Z 2300/2324 29007KT P6SM BKN040
     FM230130 35006KT P6SM FEW035
     FM232000 31007KT P6SM BKN200=



000
FTUS45 KABQ 222300
TAFROW
TAF
KROW 222340Z 2300/2324 01021KT 2SM -SN OVC025
     FM230300 33008KT 4SM -SN SCT025 OVC040
     FM230500 28005KT P6SM BKN040
     FM230800 VRB06KT P6SM SKC
     FM231200 VRB06KT 1SM BR OVC004
     FM231600 VRB06KT P6SM SKC=



000
FTUS45 KABQ 222300
TAFGUP
TAF
KGUP 222340Z 2300/2324 03006KT P6SM FEW040
     FM230600 VRB06KT P6SM SKC
     FM232100 31006KT P6SM BKN200=



000
FTUS45 KABQ 222300
TAFFMN
TAF
KFMN 222340Z 2300/2324 27010KT P6SM FEW040
     FM230100 30006KT P6SM SKC
     FM231100 08006KT P6SM FEW003 SCT250
     FM231600 13006KT P6SM SCT250
     FM232000 27010KT P6SM SCT080 BKN150=



000
FTUS45 KABQ 222200 AAA
TAFTCC
TAF AMD
KTCC 222224Z 2222/2318 07005KT P6SM SCT035 BKN070
     FM230200 26005KT P6SM SKC
     FM231000 28006KT P6SM SCT007
     FM231500 28008KT P6SM SKC=



000
FTUS45 KABQ 222200 AAB
TAFABQ
TAF AMD
KABQ 222223Z 2222/2318 VRB05KT P6SM BKN040
     FM230130 36004KT P6SM SKC=



000
FTUS45 KABQ 222100 AAA
TAFSAF
TAF AMD
KSAF 222147Z 2222/2318 35005KT P6SM SCT040
     FM230200 35005KT P6SM SKC
     FM231200 36014KT P6SM SKC=



000
FTUS45 KABQ 222100 AAA
TAFLVS
TAF AMD
KLVS 222146Z 2222/2318 13007KT P6SM FEW035
     FM230200 20006KT P6SM SKC
     FM231000 35006KT P6SM SKC=



000
FTUS45 KABQ 222000 AAA
TAFABQ
TAF AMD
KABQ 222031Z 2221/2318 09015KT P6SM FEW035 SCT080
     FM222300 05008KT P6SM SCT040
     FM230200 36004KT P6SM SKC=



000
FTUS45 KABQ 221700
TAFROW
TAF
KROW 221738Z 2218/2318 01011KT 3/4SM -SN BR OVC015
     FM222100 01010KT 2SM -SN OVC025
     FM230100 33008KT 4SM -SN SCT025 OVC040
     FM230400 28005KT P6SM BKN040
     FM230700 VRB04KT P6SM SKC
     FM231200 VRB04KT 1SM BR OVC004=



000
FTUS45 KABQ 221700
TAFSAF
TAF
KSAF 221738Z 2218/2318 02010KT P6SM FEW030 BKN070
      TEMPO 2220/2223 BKN030
     FM222300 VRB05KT P6SM BKN040
     FM230200 35005KT P6SM SKC=



000
FTUS45 KABQ 221700
TAFABQ
TAF
KABQ 221738Z 2218/2318 08018G28KT P6SM FEW025 BKN070
     FM222000 06013G21KT P6SM FEW035 BKN070
     FM222200 04010KT P6SM BKN040
     FM230200 36004KT P6SM SKC=



000
FTUS45 KABQ 221700
TAFFMN
TAF
KFMN 221738Z 2218/2318 VRB05KT P6SM SKC
     FM222100 28010KT P6SM FEW040
     FM230100 VRB04KT P6SM SKC
     FM231100 08004KT P6SM VCFG FEW004
     FM231600 09005KT P6SM SCT250=



000
FTUS45 KABQ 221700
TAFTCC
TAF
KTCC 221738Z 2218/2318 03011KT P6SM VCSH BKN025 OVC040
      TEMPO 2218/2222 4SM -SN BR OVC020
     FM222200 07005KT P6SM VCSH BKN030 OVC070
     FM230200 26005KT P6SM SKC
     FM231000 28006KT P6SM SCT007
     FM231500 28008KT P6SM SKC=



000
FTUS45 KABQ 221700
TAFLVS
TAF
KLVS 221738Z 2218/2318 03007KT P6SM VCSH SCT025 OVC040
      TEMPO 2218/2220 BKN025
     FM222100 08007KT P6SM VCSH BKN030
     FM230200 20006KT P6SM SKC
     FM231000 35006KT P6SM SKC=



000
FTUS45 KABQ 221700
TAFGUP
TAF
KGUP 221738Z 2218/2318 04010KT P6SM SKC
     FM221900 03007KT P6SM SCT040
     FM230100 VRB03KT P6SM SKC=



000
FTUS45 KABQ 221700 AAA
TAFFMN
TAF AMD
KFMN 221711Z 2217/2312 VRB05KT P6SM SKC
     FM222100 28010KT P6SM FEW040
     FM230100 VRB04KT P6SM SKC
     FM231100 08004KT P6SM VCFG FEW004=



000
FTUS45 KABQ 221700 AAA
TAFTCC
TAF AMD
KTCC 221702Z 2217/2312 03011KT P6SM VCSH BKN025 OVC040
      TEMPO 2217/2221 4SM -SN BR OVC020
     FM222100 07005KT P6SM VCSH BKN030 OVC070
     FM230200 28005KT P6SM SKC
     FM231000 27006KT P6SM SCT007=



000
FTUS45 KABQ 221600 AAA
TAFSAF
TAF AMD
KSAF 221657Z 2217/2312 02010KT P6SM VCSH FEW030 BKN070
      TEMPO 2218/2220 BKN030
     FM222100 03007KT P6SM SCT030
     FM230100 35005KT P6SM FEW030=



000
FTUS45 KABQ 221600 AAA
TAFLVS
TAF AMD
KLVS 221609Z 2216/2312 02010KT 4SM -SN BR OVC025
     FM221800 04010KT 6SM -SN SCT025 OVC035
     FM222000 09010KT P6SM VCSH BKN020
     FM230300 19007KT P6SM SKC=



000
FTUS45 KABQ 221500 AAB
TAFROW
TAF AMD
KROW 221504Z 2215/2312 36014KT 2SM -SN BR OVC020
      TEMPO 2215/2218 3/4SM -SN BR OVC012
     FM222100 01015KT 3SM -SN OVC009
     FM230100 33008KT 6SM -SN OVC015
     FM230500 30006KT P6SM BKN025=



000
FTUS45 KABQ 221300 AAA
TAFROW
TAF AMD
KROW 221333Z 2214/2312 02014KT 4SM -SN BR OVC020
      TEMPO 2214/2216 2SM -SN BR OVC012
     FM222100 01015KT 3SM -SN OVC009
     FM230100 33008KT 6SM -SN OVC015
     FM230500 30006KT P6SM BKN025=



000
FTUS45 KABQ 221100
TAFFMN
TAF
KFMN 221126Z 2212/2312 08006KT P6SM SCT040
     FM222100 29009KT P6SM FEW040
     FM230900 08004KT P6SM VCFG FEW004=



000
FTUS45 KABQ 221100
TAFTCC
TAF
KTCC 221126Z 2212/2312 05015KT 2SM -SN BR OVC008
     FM222100 03008KT 6SM -SN BR OVC015
     FM230000 28005KT P6SM SKC=



000
FTUS45 KABQ 221100
TAFABQ
TAF
KABQ 221126Z 2212/2312 08025G40KT P6SM VCSH OVC060
     FM221700 06015G25KT P6SM FEW040 BKN070
     FM222100 05010KT P6SM BKN040
     FM230500 VRB03KT P6SM SKC=



000
FTUS45 KABQ 221100
TAFSAF
TAF
KSAF 221126Z 2212/2312 02014G24KT 2SM -SN BR OVC015
     FM221600 03015G25KT P6SM VCSH BKN025
     FM222100 03007KT P6SM SCT030
     FM230100 35005KT P6SM FEW030=



000
FTUS45 KABQ 221100
TAFROW
TAF
KROW 221126Z 2212/2312 02015G25KT 3/4SM -SN BR OVC003
     FM222100 01015KT 3SM -SN OVC009
     FM230100 33008KT 6SM -SN OVC015
     FM230500 30006KT P6SM BKN025=



000
FTUS45 KABQ 221100
TAFLVS
TAF
KLVS 221126Z 2212/2312 04010KT 1SM -SN BR OVC012
     FM221700 05010KT 6SM -SN OVC015
     FM222000 09010KT P6SM VCSH BKN020
     FM230300 19007KT P6SM SKC=



000
FTUS45 KABQ 221100
TAFGUP
TAF
KGUP 221126Z 2212/2312 03006KT P6SM SKC
     FM221400 06006KT P6SM VCSH BKN015
     FM221800 03007KT P6SM SCT040
     FM230100 VRB03KT P6SM FEW030=



    US Dept of Commerce
    National Oceanic and Atmospheric Administration
    National Weather Service
    1325 East West Highway
    Silver Spring, MD 20910
    Page Author: NWS Internet Services Team
Disclaimer
Information Quality
Credits
Glossary
Privacy Policy
Freedom of Information Act (FOIA)
About Us
Career Opportunities